Aérodrome :
LOGIN :

S'inscrire | Disclaimer

   EN    FR    IT 

 










Légende :    VFR   VFR Marginal   IFR   IFR Intensif   IFR Très Intensif
Visi : 
Plafond : 
>= 8 km
>= 3000ft
5 à 8 km
1000 à 3000 ft
1500m à 5 km
500 à 1000 ft
800 à 1500m
200 à 500 ft
< 800m
< 200 ft
Symboles :   Orages  Brouillard  Fortes neiges  Fortes précipitations  Vent > 20 kt
SIGMETs :   Divers  Orages  Givrage  Turbulence  Onde Orograph.  Cendres Volcan.






- Altitude de l'aérodrome : 187 ft


LPMR - Monte Real Air Base

DERNIER METAR :
  • 201100Z 17006KT 9999 SCT014 13/11 Q1009

METARs EXPIRÉS :
  • 201000Z 14005KT 9999 FEW014 12/11 Q1009
  • 200900Z 14008KT 9999 FEW012 11/10 Q1009

TAF TAF LPMR
Valide du 20 à 12h jusqu'au 21 à 12h UTC


201107Z 2012/2112 24012KT 9999 FEW015 SCT025
TEMPO 2012/2104 6000 SHRA FEW008 BKN016 FEW020TCU
PROB30
TEMPO 2012/2017 2000 TSRA SCT008 BKN014 SCT018CB
BECMG 2019/2021 19008KT
BECMG 2103/2105 8000 -RA
PROB40
TEMPO 2104/2112 6000 -RA SCT014 BKN020



MET'MAP, la Météo Aéronautique d'un coup d'oeil ! - Copyright ORBIFLY Décembre 2007 - Disclaimer

ORBIFLY MET'MAP TEAM :

Programmation & Développement : Alexandra Zaïnal
Conception & Développement : Baudouin d'Aumeries
Co-Programmation & Développement : Marc-Olivier Méhu
Soutien technique & logistique : Manuel Goepfert

Contact : metmap@orbifly.com




SOURCES & CREDITS :

   NOAA